createdAt,value
2017-09-17T00:02:22.638Z,13.42
2017-09-17T00:04:49.691Z,13.28
2017-09-17T00:07:16.688Z,13.34
2017-09-17T00:09:42.951Z,13.51
2017-09-17T00:12:09.243Z,13.70
2017-09-17T00:14:35.469Z,13.31
2017-09-17T00:17:01.731Z,13.16
2017-09-17T00:19:28.119Z,13.04
2017-09-17T00:21:54.358Z,13.06
2017-09-17T00:24:20.602Z,13.21
2017-09-17T00:26:46.879Z,13.45
2017-09-17T00:29:13.868Z,13.35
2017-09-17T00:31:40.141Z,13.25
2017-09-17T00:34:07.151Z,13.20
2017-09-17T00:36:33.403Z,13.28
2017-09-17T00:38:59.692Z,13.07
2017-09-17T00:41:25.971Z,13.20
2017-09-17T00:43:52.979Z,13.06
2017-09-17T00:46:19.518Z,13.37
2017-09-17T00:48:45.770Z,13.16
2017-09-17T00:51:12.069Z,12.94
2017-09-17T00:53:38.349Z,12.75
2017-09-17T00:56:05.350Z,12.67
2017-09-17T00:58:31.636Z,12.86
2017-09-17T01:00:57.898Z,13.06
2017-09-17T01:03:24.159Z,13.19
2017-09-17T01:05:50.445Z,12.88
2017-09-17T01:08:16.727Z,13.16
2017-09-17T01:10:43.741Z,12.90
2017-09-17T01:13:10.198Z,13.37
2017-09-17T01:15:36.483Z,13.48
2017-09-17T01:18:02.764Z,13.25
2017-09-17T01:20:29.832Z,12.92
2017-09-17T01:22:56.853Z,13.06
2017-09-17T01:25:23.119Z,12.90
2017-09-17T01:27:49.691Z,12.79
2017-09-17T01:30:15.945Z,13.05
2017-09-17T01:32:42.191Z,13.05
2017-09-17T01:35:09.202Z,13.32
2017-09-17T01:37:35.477Z,12.95
2017-09-17T01:40:01.727Z,12.91
2017-09-17T01:42:27.992Z,12.68
2017-09-17T01:44:54.241Z,12.69
2017-09-17T01:47:21.224Z,12.83
2017-09-17T01:49:47.745Z,12.96
2017-09-17T01:52:13.988Z,13.13
2017-09-17T01:54:40.225Z,13.03
2017-09-17T01:57:06.518Z,13.24
2017-09-17T01:59:33.499Z,13.31
2017-09-17T02:02:00.486Z,13.34
2017-09-17T02:04:26.745Z,13.35
2017-09-17T02:06:53.770Z,13.32
2017-09-17T02:09:20.010Z,13.24
2017-09-17T02:11:47.001Z,13.16
2017-09-17T02:14:13.280Z,13.25
2017-09-17T02:16:40.267Z,13.40
2017-09-17T02:19:06.514Z,13.47
2017-09-17T02:21:33.163Z,13.13
2017-09-17T02:23:59.418Z,12.84
2017-09-17T02:26:26.401Z,13.04
2017-09-17T02:28:52.715Z,13.21
2017-09-17T02:31:18.983Z,13.25
2017-09-17T02:33:45.226Z,13.05
2017-09-17T02:36:11.525Z,12.87
2017-09-17T02:38:38.218Z,12.94
2017-09-17T02:41:04.502Z,12.74
2017-09-17T02:43:30.781Z,12.60
2017-09-17T02:45:57.804Z,12.81
2017-09-17T02:48:24.057Z,12.84
2017-09-17T02:50:51.090Z,12.82
2017-09-17T02:53:17.362Z,12.72
2017-09-17T02:55:43.610Z,12.46
2017-09-17T02:58:09.885Z,12.79
2017-09-17T03:00:36.144Z,12.74
2017-09-17T03:03:02.439Z,12.73
2017-09-17T03:05:28.716Z,12.77
2017-09-17T03:07:55.802Z,12.55
2017-09-17T03:10:22.041Z,12.12
2017-09-17T03:12:48.340Z,11.85
2017-09-17T03:15:14.590Z,12.07
2017-09-17T03:17:40.848Z,12.17
2017-09-17T03:20:08.160Z,12.07
2017-09-17T03:22:34.410Z,12.41
2017-09-17T03:25:00.673Z,12.16
2017-09-17T03:27:26.956Z,12.12
2017-09-17T03:29:53.186Z,12.00
2017-09-17T03:32:19.425Z,11.85
2017-09-17T03:34:45.690Z,11.76
2017-09-17T03:37:11.962Z,11.73
2017-09-17T03:39:38.239Z,12.06
2017-09-17T03:42:04.488Z,11.80
2017-09-17T03:44:30.738Z,11.65
2017-09-17T03:46:57.102Z,11.67
2017-09-17T03:49:23.371Z,11.79
2017-09-17T03:51:49.622Z,11.74
2017-09-17T03:54:15.873Z,12.15
2017-09-17T03:56:42.119Z,12.30
2017-09-17T03:59:09.123Z,12.48
2017-09-17T04:01:35.418Z,12.26
2017-09-17T04:04:01.687Z,12.22
2017-09-17T04:06:27.928Z,11.97
2017-09-17T04:08:54.194Z,12.06
2017-09-17T04:11:21.177Z,12.22
2017-09-17T04:13:47.406Z,12.00
2017-09-17T04:16:14.165Z,12.02
2017-09-17T04:18:40.411Z,11.96
2017-09-17T04:21:06.653Z,12.01
2017-09-17T04:23:32.919Z,12.18
2017-09-17T04:25:59.165Z,11.83
2017-09-17T04:28:25.405Z,11.57
2017-09-17T04:30:51.766Z,11.52
2017-09-17T04:33:18.019Z,11.82
2017-09-17T04:35:44.267Z,11.45
2017-09-17T04:38:10.551Z,11.61
2017-09-17T04:40:36.794Z,11.79
2017-09-17T04:43:03.774Z,11.90
2017-09-17T04:45:30.030Z,12.11
2017-09-17T04:47:56.279Z,12.36
2017-09-17T04:50:22.538Z,12.26
2017-09-17T04:52:48.798Z,12.22
2017-09-17T04:55:15.042Z,12.26
2017-09-17T04:57:41.781Z,12.17
2017-09-17T05:00:08.018Z,12.01
2017-09-17T05:02:34.263Z,11.69
2017-09-17T05:05:00.574Z,11.37
2017-09-17T05:07:26.826Z,11.18
2017-09-17T05:09:53.830Z,11.34
2017-09-17T05:12:20.102Z,11.26
2017-09-17T05:14:46.357Z,11.21
2017-09-17T05:17:12.635Z,11.35
2017-09-17T05:19:39.272Z,11.15
2017-09-17T05:22:05.518Z,11.15
2017-09-17T05:24:31.773Z,11.09
2017-09-17T05:26:58.062Z,11.11
2017-09-17T05:29:24.301Z,11.06
2017-09-17T05:31:50.550Z,11.04
2017-09-17T05:34:17.857Z,10.97
2017-09-17T05:36:44.129Z,10.97
2017-09-17T05:39:11.111Z,11.07
2017-09-17T05:41:37.414Z,11.06
2017-09-17T05:44:04.403Z,11.06
2017-09-17T05:46:30.648Z,11.11
2017-09-17T05:48:56.899Z,11.11
2017-09-17T05:51:23.890Z,11.13
2017-09-17T05:53:50.254Z,11.14
2017-09-17T05:56:16.534Z,11.80
2017-09-17T05:58:42.791Z,11.68
2017-09-17T06:01:09.246Z,11.27
2017-09-17T06:03:35.542Z,11.66
2017-09-17T06:06:01.836Z,13.85
2017-09-17T06:08:28.834Z,14.26
2017-09-17T06:10:55.071Z,12.60
2017-09-17T06:13:21.315Z,11.93
2017-09-17T06:15:48.146Z,11.72
2017-09-17T06:18:14.398Z,11.61
2017-09-17T06:20:41.395Z,11.40
2017-09-17T06:23:07.674Z,11.32
2017-09-17T06:25:33.910Z,11.17
2017-09-17T06:28:00.921Z,11.25
2017-09-17T06:30:27.195Z,11.24
2017-09-17T06:32:54.186Z,11.31
2017-09-17T06:35:20.434Z,11.36
2017-09-17T06:37:47.262Z,11.40
2017-09-17T06:40:13.525Z,11.39
2017-09-17T06:42:40.526Z,11.45
2017-09-17T06:45:06.801Z,11.34
2017-09-17T06:47:33.803Z,11.39
2017-09-17T06:50:00.050Z,11.43
2017-09-17T06:52:26.678Z,11.41
2017-09-17T06:54:52.971Z,11.46
2017-09-17T06:57:19.229Z,11.53
2017-09-17T06:59:45.514Z,11.63
2017-09-17T07:02:12.534Z,11.63
2017-09-17T07:04:38.801Z,11.62
2017-09-17T07:07:05.108Z,11.65
2017-09-17T07:09:32.170Z,11.66
2017-09-17T07:11:58.414Z,11.64
2017-09-17T07:14:24.689Z,11.75
2017-09-17T07:16:50.961Z,11.65
2017-09-17T07:19:17.216Z,11.68
2017-09-17T07:21:43.780Z,11.81
2017-09-17T07:24:10.322Z,11.76
2017-09-17T07:26:36.571Z,11.71
2017-09-17T07:29:03.988Z,11.79
2017-09-17T07:31:30.263Z,11.93
2017-09-17T07:33:57.279Z,11.97
2017-09-17T07:36:23.566Z,12.05
2017-09-17T07:38:49.819Z,12.11
2017-09-17T07:41:16.071Z,12.20
2017-09-17T07:43:42.310Z,12.23
2017-09-17T07:46:09.302Z,12.24
2017-09-17T07:48:35.865Z,12.34
2017-09-17T07:51:02.127Z,12.35
2017-09-17T07:53:29.102Z,12.72
2017-09-17T07:55:55.780Z,12.66
2017-09-17T07:58:22.443Z,12.66
2017-09-17T08:00:49.782Z,12.53
2017-09-17T08:03:16.078Z,12.74
2017-09-17T08:05:42.382Z,12.96
2017-09-17T08:08:08.655Z,13.10
2017-09-17T08:10:35.154Z,13.16
2017-09-17T08:13:01.490Z,13.09
2017-09-17T08:15:28.906Z,13.21
2017-09-17T08:17:55.897Z,13.38
2017-09-17T08:20:22.303Z,13.38
2017-09-17T08:22:49.312Z,13.52
2017-09-17T08:25:16.799Z,13.67
2017-09-17T08:27:43.393Z,13.54
2017-09-17T08:30:09.634Z,13.75
2017-09-17T08:32:35.879Z,13.96
2017-09-17T08:35:02.221Z,14.08
2017-09-17T08:37:29.201Z,14.35
2017-09-17T08:39:55.433Z,14.38
2017-09-17T08:42:21.683Z,14.43
2017-09-17T08:44:47.938Z,14.41
2017-09-17T08:47:14.169Z,14.46
2017-09-17T08:49:40.421Z,14.30
2017-09-17T08:52:06.677Z,14.31
2017-09-17T08:54:32.937Z,14.44
2017-09-17T08:56:59.387Z,14.35
2017-09-17T08:59:26.390Z,14.49
2017-09-17T09:01:52.669Z,14.44
2017-09-17T09:04:19.679Z,14.57
2017-09-17T09:06:45.913Z,14.58
2017-09-17T09:09:12.165Z,14.58
2017-09-17T09:11:38.419Z,14.56
2017-09-17T09:14:04.651Z,14.65
2017-09-17T09:16:30.880Z,14.66
2017-09-17T09:18:57.109Z,14.68
2017-09-17T09:21:23.581Z,14.71
2017-09-17T09:23:49.809Z,14.75
2017-09-17T09:26:16.055Z,14.71
2017-09-17T09:28:42.578Z,14.81
2017-09-17T09:31:08.803Z,14.90
2017-09-17T09:33:35.045Z,14.90
2017-09-17T09:36:01.334Z,15.03
2017-09-17T09:38:27.583Z,15.00
2017-09-17T09:40:53.832Z,14.98
2017-09-17T09:43:20.111Z,15.16
2017-09-17T09:45:46.353Z,15.24
2017-09-17T09:48:12.591Z,15.27
2017-09-17T09:50:38.832Z,15.31
2017-09-17T09:53:05.077Z,15.34
2017-09-17T09:55:31.358Z,15.47
2017-09-17T09:57:57.622Z,15.53
2017-09-17T10:00:23.910Z,15.50
2017-09-17T10:02:50.154Z,15.73
2017-09-17T10:05:16.380Z,15.81
2017-09-17T10:07:43.049Z,15.98
2017-09-17T10:10:09.290Z,16.19
2017-09-17T10:12:35.531Z,16.39
2017-09-17T10:15:02.874Z,16.41
2017-09-17T10:17:29.100Z,16.48
2017-09-17T10:19:55.330Z,16.60
2017-09-17T10:22:21.610Z,16.52
2017-09-17T10:24:47.847Z,16.76
2017-09-17T10:27:14.077Z,17.36
2017-09-17T10:29:40.336Z,17.04
2017-09-17T10:32:06.573Z,17.08
2017-09-17T10:34:32.823Z,17.06
2017-09-17T10:36:59.963Z,17.10
2017-09-17T10:39:26.944Z,17.04
2017-09-17T10:41:53.182Z,17.15
2017-09-17T10:44:19.545Z,17.03
2017-09-17T10:46:45.770Z,17.17
2017-09-17T10:49:12.005Z,17.39
2017-09-17T10:51:38.351Z,17.36
2017-09-17T10:54:05.355Z,17.07
2017-09-17T10:56:31.582Z,17.14
2017-09-17T10:58:58.148Z,17.31
2017-09-17T11:01:24.445Z,17.30
2017-09-17T11:03:50.674Z,17.25
2017-09-17T11:06:16.950Z,16.96
2017-09-17T11:08:43.948Z,17.19
2017-09-17T11:11:10.192Z,17.45
2017-09-17T11:13:36.478Z,17.52
2017-09-17T11:16:02.738Z,17.32
2017-09-17T11:18:28.971Z,17.36
2017-09-17T11:20:55.220Z,17.44
2017-09-17T11:23:21.452Z,17.15
2017-09-17T11:25:47.874Z,16.99
2017-09-17T11:28:14.094Z,16.95
2017-09-17T11:30:40.326Z,16.94
2017-09-17T11:33:06.606Z,17.36
2017-09-17T11:35:32.866Z,17.55
2017-09-17T11:37:59.101Z,17.25
2017-09-17T11:40:25.395Z,17.07
2017-09-17T11:42:51.623Z,16.82
2017-09-17T11:45:17.889Z,16.73
2017-09-17T11:47:44.145Z,16.78
2017-09-17T11:50:10.399Z,16.77
2017-09-17T11:52:37.381Z,16.55
2017-09-17T11:55:03.659Z,16.56
2017-09-17T11:57:30.626Z,16.48
2017-09-17T11:59:56.874Z,16.31
2017-09-17T12:02:23.235Z,16.22
2017-09-17T12:04:49.482Z,16.23
2017-09-17T12:07:16.486Z,16.20
2017-09-17T12:09:43.006Z,16.19
2017-09-17T12:12:09.225Z,16.10
2017-09-17T12:14:35.470Z,16.12
2017-09-17T12:17:01.718Z,16.14
2017-09-17T12:19:27.946Z,16.10
2017-09-17T12:21:54.182Z,16.02
2017-09-17T12:24:20.708Z,16.06
2017-09-17T12:26:46.935Z,16.00
2017-09-17T12:29:13.171Z,15.88
2017-09-17T12:31:39.417Z,15.81
2017-09-17T12:34:05.644Z,15.71
2017-09-17T12:36:31.926Z,15.60
2017-09-17T12:38:58.154Z,15.59
2017-09-17T12:41:24.375Z,15.48
2017-09-17T12:43:50.750Z,15.27
2017-09-17T12:46:17.002Z,15.20
2017-09-17T12:48:43.969Z,15.01
2017-09-17T12:51:10.554Z,14.72
2017-09-17T12:53:36.805Z,14.43
2017-09-17T12:56:03.035Z,14.23
2017-09-17T12:58:30.035Z,14.32
2017-09-17T13:00:56.310Z,14.17
2017-09-17T13:03:23.539Z,14.15
2017-09-17T13:05:49.773Z,13.92
2017-09-17T13:08:16.027Z,13.87
2017-09-17T13:10:43.249Z,13.99
2017-09-17T13:13:09.499Z,13.69
2017-09-17T13:15:36.470Z,13.69
2017-09-17T13:18:02.759Z,13.77
2017-09-17T13:20:29.042Z,13.77
2017-09-17T13:22:55.278Z,13.79
2017-09-17T13:25:21.554Z,13.61
2017-09-17T13:27:47.785Z,13.47
2017-09-17T13:30:14.022Z,13.35
2017-09-17T13:32:41.039Z,13.32
2017-09-17T13:35:07.290Z,13.29
2017-09-17T13:37:34.279Z,13.36
2017-09-17T13:40:00.574Z,13.23
2017-09-17T13:42:27.567Z,13.18
2017-09-17T13:44:53.852Z,13.14
2017-09-17T13:47:20.903Z,13.11
2017-09-17T13:49:47.902Z,13.06
2017-09-17T13:52:14.175Z,12.99
2017-09-17T13:54:41.287Z,12.98
2017-09-17T13:57:07.562Z,12.84
2017-09-17T13:59:34.685Z,12.88
2017-09-17T14:05:14.026Z,12.95
2017-09-17T14:07:43.162Z,12.80
2017-09-17T14:10:10.281Z,12.85
2017-09-17T14:12:36.543Z,12.75
2017-09-17T14:15:02.830Z,12.50
2017-09-17T14:17:29.261Z,12.48
2017-09-17T14:19:55.518Z,12.41
2017-09-17T14:22:22.521Z,12.49
2017-09-17T14:24:48.812Z,12.50
2017-09-17T14:27:15.055Z,12.57
2017-09-17T14:29:41.283Z,12.66
2017-09-17T14:32:07.536Z,12.67
2017-09-17T14:34:33.778Z,12.97
2017-09-17T14:37:00.051Z,13.11
2017-09-17T14:39:26.290Z,12.97
2017-09-17T14:41:52.581Z,13.13
2017-09-17T14:44:19.098Z,13.04
2017-09-17T14:46:45.378Z,12.96
2017-09-17T14:49:11.619Z,13.00
2017-09-17T14:51:37.894Z,13.12
2017-09-17T14:54:04.162Z,13.27
2017-09-17T14:56:30.394Z,13.05
2017-09-17T14:58:56.666Z,12.99
2017-09-17T15:01:23.643Z,13.06
2017-09-17T15:03:50.611Z,13.15
2017-09-17T15:06:16.861Z,13.18
2017-09-17T15:08:43.099Z,13.22
2017-09-17T15:11:09.650Z,13.92
2017-09-17T15:13:35.874Z,13.64
2017-09-17T15:16:03.070Z,13.81
2017-09-17T15:18:30.073Z,14.38
2017-09-17T15:20:56.319Z,14.41
2017-09-17T15:23:22.606Z,13.80
2017-09-17T15:25:48.866Z,13.59
2017-09-17T15:28:15.116Z,13.41
2017-09-17T15:30:42.119Z,13.34
2017-09-17T15:33:08.373Z,13.31
2017-09-17T15:35:34.646Z,13.22
2017-09-17T15:38:00.886Z,13.20
2017-09-17T15:40:27.119Z,13.27
2017-09-17T15:42:53.351Z,13.68
2017-09-17T15:45:20.007Z,15.10
2017-09-17T15:47:46.231Z,14.79
2017-09-17T15:50:12.467Z,14.31
2017-09-17T15:52:38.723Z,14.47
2017-09-17T15:55:04.953Z,14.32
2017-09-17T15:57:31.943Z,13.84
2017-09-17T15:59:58.271Z,13.70
2017-09-17T16:02:24.514Z,13.62
2017-09-17T16:04:50.759Z,13.60
2017-09-17T16:07:17.037Z,13.59
2017-09-17T16:09:43.274Z,13.55
2017-09-17T16:12:09.512Z,13.54
2017-09-17T16:14:35.751Z,13.48
2017-09-17T16:17:02.038Z,13.49
2017-09-17T16:19:29.043Z,13.46
2017-09-17T16:21:55.305Z,13.44
2017-09-17T16:24:22.334Z,13.43
2017-09-17T16:26:48.571Z,13.42
2017-09-17T16:29:14.806Z,13.49
2017-09-17T16:31:42.125Z,13.49
2017-09-17T16:34:08.367Z,13.46
2017-09-17T16:36:34.617Z,13.40
2017-09-17T16:39:01.601Z,13.38
2017-09-17T16:41:27.850Z,13.37
2017-09-17T16:43:54.253Z,13.39
2017-09-17T16:46:20.494Z,13.33
2017-09-17T16:48:46.727Z,13.32
2017-09-17T16:51:12.985Z,13.33
2017-09-17T16:53:39.234Z,15.14
2017-09-17T16:56:05.483Z,15.74
2017-09-17T16:58:32.465Z,15.96
2017-09-17T17:00:58.973Z,15.93
2017-09-17T17:03:25.230Z,16.10
2017-09-17T17:05:51.471Z,15.12
2017-09-17T17:08:17.992Z,15.30
2017-09-17T17:10:44.560Z,14.81
2017-09-17T17:13:10.821Z,15.03
2017-09-17T17:15:37.863Z,14.18
2017-09-17T17:18:04.913Z,13.55
2017-09-17T17:20:31.900Z,13.23
2017-09-17T17:22:58.150Z,12.97
2017-09-17T17:25:24.695Z,12.91
2017-09-17T17:27:50.930Z,12.87
2017-09-17T17:30:17.253Z,12.99
2017-09-17T17:32:43.485Z,13.02
2017-09-17T17:35:09.717Z,12.99
2017-09-17T17:37:36.738Z,12.89
2017-09-17T17:40:03.947Z,12.88
2017-09-17T17:42:30.188Z,12.83
2017-09-17T17:44:56.646Z,12.68
2017-09-17T17:47:22.911Z,12.67
2017-09-17T17:49:49.904Z,12.66
2017-09-17T17:52:16.207Z,12.65
2017-09-17T17:54:42.463Z,12.62
2017-09-17T17:57:08.711Z,12.54
2017-09-17T17:59:35.012Z,12.57
2017-09-17T18:02:01.283Z,12.48
2017-09-17T18:04:27.760Z,12.47
2017-09-17T18:06:54.019Z,12.46
2017-09-17T18:09:20.457Z,12.64
2017-09-17T18:11:46.833Z,12.62
2017-09-17T18:14:13.845Z,12.76
2017-09-17T18:16:40.090Z,12.69
2017-09-17T18:19:06.411Z,12.69
2017-09-17T18:21:32.923Z,12.79
2017-09-17T18:24:00.143Z,12.99
2017-09-17T18:26:26.388Z,13.10
2017-09-17T18:28:52.907Z,13.06
2017-09-17T18:31:19.480Z,12.81
2017-09-17T18:33:45.803Z,12.75
2017-09-17T18:36:12.985Z,13.19
2017-09-17T18:38:39.361Z,13.28
2017-09-17T18:41:05.649Z,13.03
2017-09-17T18:43:32.889Z,13.26
2017-09-17T18:45:59.235Z,13.19
2017-09-17T18:48:26.255Z,13.37
2017-09-17T18:53:47.794Z,13.01
2017-09-17T18:56:14.594Z,13.15
2017-09-17T18:58:40.846Z,12.87
2017-09-17T19:01:07.121Z,12.68
2017-09-17T19:03:34.669Z,12.60
2017-09-17T19:06:00.907Z,12.86
2017-09-17T19:08:27.901Z,12.81
2017-09-17T19:10:54.616Z,12.60
2017-09-17T19:13:20.896Z,12.53
2017-09-17T19:15:47.163Z,12.52
2017-09-17T19:18:14.215Z,12.26
2017-09-17T19:20:40.878Z,12.14
2017-09-17T19:23:07.121Z,12.09
2017-09-17T19:25:33.389Z,11.96
2017-09-17T19:27:59.992Z,11.99
2017-09-17T19:30:26.284Z,12.01
2017-09-17T19:32:52.569Z,12.00
2017-09-17T19:35:18.870Z,12.06
2017-09-17T19:37:45.418Z,12.31
2017-09-17T19:40:11.655Z,12.40
2017-09-17T19:42:38.690Z,12.48
2017-09-17T19:45:05.221Z,12.68
2017-09-17T19:47:31.472Z,12.61
2017-09-17T19:49:57.783Z,12.21
2017-09-17T19:52:24.186Z,12.07
2017-09-17T19:54:50.466Z,12.01
2017-09-17T19:57:18.031Z,12.01
2017-09-17T19:59:44.269Z,12.00
2017-09-17T20:02:11.265Z,12.07
2017-09-17T20:04:37.514Z,11.96
2017-09-17T20:07:03.979Z,12.18
2017-09-17T20:09:31.003Z,12.31
2017-09-17T20:11:57.251Z,12.40
2017-09-17T20:14:24.251Z,12.35
2017-09-17T20:16:50.809Z,12.16
2017-09-17T20:19:17.062Z,12.22
2017-09-17T20:21:44.051Z,12.21
2017-09-17T20:24:10.609Z,12.30
2017-09-17T20:26:36.842Z,11.86
2017-09-17T20:29:03.082Z,12.06
2017-09-17T20:31:29.358Z,11.91
2017-09-17T20:33:55.619Z,11.91
2017-09-17T20:36:23.039Z,11.87
2017-09-17T20:38:49.333Z,11.63
2017-09-17T20:41:15.565Z,11.64
2017-09-17T20:43:41.840Z,11.70
2017-09-17T20:46:09.186Z,11.72
2017-09-17T20:48:35.410Z,11.74
2017-09-17T20:51:01.720Z,11.80
2017-09-17T20:53:28.707Z,11.70
2017-09-17T20:55:54.941Z,11.75
2017-09-17T20:58:21.456Z,11.75
2017-09-17T21:00:47.704Z,11.77
2017-09-17T21:03:13.937Z,11.79
2017-09-17T21:05:40.481Z,11.77
2017-09-17T21:08:06.710Z,11.84
2017-09-17T21:10:32.938Z,11.84
2017-09-17T21:12:59.235Z,11.79
2017-09-17T21:15:25.508Z,11.82
2017-09-17T21:17:51.758Z,11.86
2017-09-17T21:20:18.748Z,11.82
2017-09-17T21:22:45.023Z,11.81
2017-09-17T21:25:11.274Z,11.77
2017-09-17T21:27:38.296Z,11.64
2017-09-17T21:30:04.805Z,11.63
2017-09-17T21:32:31.046Z,11.68
2017-09-17T21:34:57.293Z,11.75
2017-09-17T21:37:23.547Z,11.69
2017-09-17T21:39:49.782Z,11.58
2017-09-17T21:42:16.014Z,11.56
2017-09-17T21:44:42.377Z,11.61
2017-09-17T21:47:08.620Z,11.70
2017-09-17T21:49:34.864Z,11.74
2017-09-17T21:52:01.890Z,11.79
2017-09-17T21:54:28.122Z,11.82
2017-09-17T21:56:54.366Z,11.82
2017-09-17T21:59:20.979Z,11.74
2017-09-17T22:01:47.210Z,11.88
2017-09-17T22:04:13.461Z,11.95
2017-09-17T22:06:39.722Z,11.83
2017-09-17T22:09:05.950Z,11.82
2017-09-17T22:11:32.530Z,11.83
2017-09-17T22:13:58.764Z,11.85
2017-09-17T22:16:25.006Z,11.82
2017-09-17T22:18:51.282Z,11.79
2017-09-17T22:21:17.518Z,11.72
2017-09-17T22:23:43.765Z,11.68
2017-09-17T22:26:10.021Z,11.61
2017-09-17T22:28:36.259Z,11.54
2017-09-17T22:31:03.227Z,11.54
2017-09-17T22:33:29.669Z,11.61
2017-09-17T22:35:55.906Z,11.67
2017-09-17T22:38:22.152Z,11.65
2017-09-17T22:40:48.397Z,11.70
2017-09-17T22:43:14.637Z,11.73
2017-09-17T22:45:41.149Z,11.76
2017-09-17T22:48:07.399Z,11.74
2017-09-17T22:50:33.627Z,11.72
2017-09-17T22:52:59.973Z,11.68
2017-09-17T22:55:26.928Z,11.69
2017-09-17T22:57:53.901Z,11.69
2017-09-17T23:00:20.357Z,11.65
2017-09-17T23:02:46.590Z,11.65
2017-09-17T23:05:12.817Z,11.67
2017-09-17T23:07:39.067Z,11.70
2017-09-17T23:10:05.298Z,11.70
2017-09-17T23:12:31.547Z,11.66
2017-09-17T23:14:58.550Z,11.64
2017-09-17T23:17:24.773Z,11.62
2017-09-17T23:19:51.000Z,11.59
2017-09-17T23:22:17.253Z,11.57
2017-09-17T23:24:43.509Z,11.58
2017-09-17T23:27:10.824Z,11.54
2017-09-17T23:29:37.107Z,11.52
2017-09-17T23:32:03.324Z,11.57
2017-09-17T23:34:29.546Z,11.61
2017-09-17T23:36:56.554Z,11.46
2017-09-17T23:39:22.774Z,11.51
2017-09-17T23:41:49.002Z,11.63
2017-09-17T23:44:15.506Z,11.66
2017-09-17T23:46:41.731Z,11.66
2017-09-17T23:49:07.954Z,11.67
2017-09-17T23:51:34.168Z,11.70
2017-09-17T23:54:01.135Z,11.68
2017-09-17T23:56:27.399Z,11.71
2017-09-17T23:58:53.628Z,11.73
